Time;durP1;ratioP1;P1;durP2;ratioP2;P2;SDS_P1;SDS_P2;PMS_P1;PMS_P2;Temp;Humidity;BMP_temperature;BMP_pressure;BME280_temperature;BME280_humidity;BME280_pressure;Samples;Min_cycle;Max_cycle;Signal;HPM_P1;HPM_P2
2021/06/12 18:56:21;;;;;;;1.17;0.63;;;;;;;14.38;100.00;100817.72;5089846;27;20409;-55
2021/06/12 18:59:24;;;;;;;0.45;0.45;;;;;;;14.29;100.00;100826.19;5089397;28;20047;-54
2021/06/12 19:02:28;;;;;;;0.20;0.17;;;;;;;14.18;100.00;100823.13;5089013;28;20051;-55
2021/06/12 19:05:31;;;;;;;0.10;0.10;;;;;;;14.02;100.00;100823.53;5073102;28;20051;-55
2021/06/12 19:08:35;;;;;;;1.85;1.05;;;;;;;13.92;100.00;100836.03;5088966;28;20048;-55
2021/06/12 19:11:38;;;;;;;0.68;0.30;;;;;;;13.86;100.00;100835.16;5089230;28;20066;-53
2021/06/12 19:14:41;;;;;;;0.38;0.20;;;;;;;13.79;100.00;100827.09;5089116;28;20048;-55
2021/06/12 19:17:46;;;;;;;0.40;0.20;;;;;;;13.69;100.00;100832.72;5079734;28;20051;-55
2021/06/12 19:20:49;;;;;;;1.10;0.28;;;;;;;13.60;100.00;100834.78;5068839;28;20048;-55
2021/06/12 19:23:52;;;;;;;0.38;0.20;;;;;;;13.47;100.00;100834.97;5081836;28;20043;-55
2021/06/12 19:26:56;;;;;;;0.63;0.38;;;;;;;13.42;100.00;100835.63;5088907;28;20056;-55
2021/06/12 19:30:00;;;;;;;0.20;0.20;;;;;;;13.36;100.00;100843.09;5089254;28;20039;-54
2021/06/12 19:33:04;;;;;;;1.50;0.43;;;;;;;13.31;100.00;100843.75;5088954;28;20047;-55
2021/06/12 19:36:09;;;;;;;2.40;0.73;;;;;;;13.21;100.00;100847.78;5088697;28;20043;-55
2021/06/12 19:39:22;;;;;;;4.10;0.30;;;;;;;13.11;100.00;100848.28;5086827;28;20051;-55
2021/06/12 19:42:26;;;;;;;0.50;0.20;;;;;;;13.03;100.00;100847.81;5087897;28;20040;-55
2021/06/12 19:45:29;;;;;;;2.33;0.50;;;;;;;12.95;100.00;100857.75;5088387;28;20063;-55
2021/06/12 19:48:33;;;;;;;0.82;0.50;;;;;;;12.91;100.00;100857.13;5088346;28;20130;-54
2021/06/12 19:51:37;;;;;;;3.83;0.65;;;;;;;12.86;100.00;100858.53;5081543;28;20067;-54
2021/06/12 19:54:40;;;;;;;0.20;0.10;;;;;;;12.81;100.00;100863.97;5085643;28;20276;-55
2021/06/12 19:57:45;;;;;;;0.10;0.10;;;;;;;12.75;100.00;100863.06;5074476;28;20056;-55
2021/06/12 20:00:48;;;;;;;0.20;0.20;;;;;;;12.68;100.00;100860.56;5073263;28;20047;-55
2021/06/12 20:03:52;;;;;;;0.10;0.10;;;;;;;12.61;100.00;100863.66;5072773;28;20408;-54
2021/06/12 20:06:56;;;;;;;0.47;0.30;;;;;;;12.53;100.00;100868.00;5073080;28;20051;-55
2021/06/12 20:09:59;;;;;;;0.22;0.22;;;;;;;12.48;100.00;100868.63;5073345;28;20047;-55
2021/06/12 20:13:03;;;;;;;0.28;0.20;;;;;;;12.42;100.00;100878.84;5073515;28;20388;-55
2021/06/12 20:16:07;;;;;;;0.90;0.35;;;;;;;12.32;100.00;100880.09;5074255;28;20047;-56
2021/06/12 20:19:10;;;;;;;1.30;0.38;;;;;;;12.25;100.00;100878.38;5074614;28;20044;-55
2021/06/12 20:22:15;;;;;;;7.90;0.85;;;;;;;12.18;100.00;100882.22;5074042;28;20051;-55
2021/06/12 20:25:18;;;;;;;0.77;0.22;;;;;;;12.12;100.00;100883.31;5074411;28;20503;-54
2021/06/12 20:28:24;;;;;;;0.85;0.20;;;;;;;12.01;100.00;100888.53;5074414;28;20534;-55
2021/06/12 20:31:27;;;;;;;0.10;0.10;;;;;;;11.94;100.00;100894.41;5074242;28;20067;-55
2021/06/12 20:34:31;;;;;;;0.32;0.25;;;;;;;11.81;100.00;100897.31;5074479;28;20409;-55
2021/06/12 20:37:34;;;;;;;0.10;0.10;;;;;;;11.71;100.00;100895.72;5073286;28;20043;-54
2021/06/12 20:40:39;;;;;;;0.85;0.20;;;;;;;11.62;100.00;100900.44;5074422;28;20047;-55
2021/06/12 20:43:42;;;;;;;3.10;0.40;;;;;;;11.54;100.00;100905.53;5073706;28;20047;-54
2021/06/12 20:46:45;;;;;;;0.15;0.15;;;;;;;11.47;100.00;100908.56;5073876;28;20051;-55
2021/06/12 20:49:49;;;;;;;1.88;0.88;;;;;;;11.42;100.00;100914.72;5073893;28;20522;-55
2021/06/12 20:52:52;;;;;;;0.88;0.52;;;;;;;11.34;100.00;100910.66;5074138;28;20051;-54
2021/06/12 20:55:56;;;;;;;0.35;0.30;;;;;;;11.29;100.00;100914.03;5073496;28;20059;-54
2021/06/12 20:59:00;;;;;;;0.30;0.30;;;;;;;11.23;100.00;100913.84;5073761;28;20507;-54
2021/06/12 21:02:04;;;;;;;2.25;0.38;;;;;;;11.17;100.00;100914.88;5073876;28;20051;-54
2021/06/12 21:05:10;;;;;;;3.80;0.70;;;;;;;11.10;100.00;100913.13;5073677;28;20519;-55
2021/06/12 21:08:13;;;;;;;2.83;0.52;;;;;;;11.05;100.00;100907.34;5072603;28;20405;-54
2021/06/12 21:11:17;;;;;;;0.40;0.40;;;;;;;11.03;100.00;100904.22;5073647;28;20047;-54
2021/06/12 21:14:20;;;;;;;2.58;0.65;;;;;;;10.99;100.00;100909.16;5073521;28;20051;-55
2021/06/12 21:17:24;;;;;;;0.50;0.50;;;;;;;10.98;100.00;100918.75;5073412;28;20051;-55
2021/06/12 21:20:27;;;;;;;0.40;0.40;;;;;;;10.95;100.00;100925.22;5073159;28;20048;-55
2021/06/12 21:23:31;;;;;;;0.15;0.15;;;;;;;10.91;100.00;100921.78;5072867;28;20051;-54
2021/06/12 21:26:35;;;;;;;0.75;0.40;;;;;;;10.90;100.00;100928.59;5072982;28;20103;-55
2021/06/12 21:29:38;;;;;;;0.40;0.40;;;;;;;10.88;100.00;100925.47;5073380;28;20056;-56
2021/06/12 21:32:42;;;;;;;0.40;0.40;;;;;;;10.84;100.00;100944.34;5073341;28;20408;-55
2021/06/12 21:35:46;;;;;;;0.43;0.17;;;;;;;10.85;100.00;100946.66;5073439;28;20052;-55
2021/06/12 21:38:50;;;;;;;0.93;0.68;;;;;;;10.88;100.00;100942.19;5073189;28;20048;-56
2021/06/12 21:41:54;;;;;;;0.38;0.38;;;;;;;10.93;100.00;100950.00;5072939;28;20055;-55
2021/06/12 21:44:58;;;;;;;1.75;0.63;;;;;;;10.93;100.00;100955.56;5072857;28;20575;-55
2021/06/12 21:48:01;;;;;;;0.30;0.30;;;;;;;10.89;100.00;100952.13;5072791;28;20060;-56
2021/06/12 21:51:04;;;;;;;0.43;0.43;;;;;;;10.81;100.00;100959.16;5073111;28;20047;-55
2021/06/12 21:54:08;;;;;;;0.28;0.20;;;;;;;10.72;100.00;100959.09;5072681;28;20483;-56
2021/06/12 21:57:12;;;;;;;0.43;0.20;;;;;;;10.68;100.00;100967.53;5072603;28;20059;-55
2021/06/12 22:00:39;;;;;;;12.05;0.63;;;;;;;10.59;100.00;100973.81;5072657;28;20043;-55
2021/06/12 22:03:42;;;;;;;0.38;0.20;;;;;;;10.53;100.00;100966.47;5076870;28;20477;-55
2021/06/12 22:06:46;;;;;;;0.25;0.25;;;;;;;10.49;100.00;100972.16;5072615;28;20048;-55
2021/06/12 22:09:49;;;;;;;0.52;0.45;;;;;;;10.42;100.00;100966.81;5072757;28;20052;-55
2021/06/12 22:12:53;;;;;;;0.40;0.20;;;;;;;10.34;100.00;100971.06;5072319;28;20404;-56
2021/06/12 22:15:57;;;;;;;0.40;0.40;;;;;;;10.28;100.00;100977.66;5072389;28;20048;-55
2021/06/12 22:19:02;;;;;;;0.98;0.30;;;;;;;10.21;100.00;100975.88;5072164;28;20044;-55
2021/06/12 22:22:06;;;;;;;0.40;0.30;;;;;;;10.17;100.00;100977.97;5072356;28;20499;-55
2021/06/12 22:25:10;;;;;;;0.30;0.30;;;;;;;10.14;100.00;100973.28;5072312;28;20516;-56
2021/06/12 22:28:14;;;;;;;1.48;0.40;;;;;;;10.12;100.00;100970.19;5072151;28;20098;-55
2021/06/12 22:31:19;;;;;;;0.30;0.30;;;;;;;10.02;100.00;100979.63;5072177;28;20043;-55
2021/06/12 22:34:22;;;;;;;0.40;0.40;;;;;;;9.96;100.00;100983.41;5071854;28;20067;-55
2021/06/12 22:37:25;;;;;;;0.60;0.45;;;;;;;9.90;100.00;100986.72;5071741;28;20048;-56
2021/06/12 22:40:31;;;;;;;1.55;0.70;;;;;;;9.89;100.00;100989.97;5071975;28;20043;-56
2021/06/12 22:43:36;;;;;;;1.42;1.17;;;;;;;9.81;100.00;101000.50;5071757;28;20056;-55
2021/06/12 22:46:39;;;;;;;1.08;0.73;;;;;;;9.74;100.00;100994.38;5071934;28;20047;-55
2021/06/12 22:49:43;;;;;;;0.63;0.60;;;;;;;9.66;100.00;100993.78;5071970;28;20063;-55
2021/06/12 22:52:47;;;;;;;1.95;1.30;;;;;;;9.60;100.00;100992.00;5072015;28;20051;-55
2021/06/12 22:55:50;;;;;;;3.20;0.80;;;;;;;9.56;100.00;100982.97;5072000;28;20047;-55
2021/06/12 22:58:54;;;;;;;0.40;0.40;;;;;;;9.55;100.00;100987.00;5072089;28;20067;-55
2021/06/12 23:01:59;;;;;;;0.73;0.45;;;;;;;9.53;100.00;100989.44;5072167;28;20051;-54
2021/06/12 23:05:03;;;;;;;0.20;0.20;;;;;;;9.51;100.00;100981.53;5071922;28;20043;-55
2021/06/12 23:08:07;;;;;;;0.68;0.68;;;;;;;9.51;100.00;100975.16;5072227;28;20056;-55
2021/06/12 23:11:10;;;;;;;5.45;0.45;;;;;;;9.53;100.00;100973.50;5071965;28;20048;-56
2021/06/12 23:14:13;;;;;;;8.77;0.75;;;;;;;9.54;100.00;100977.09;5071862;28;20400;-55
2021/06/12 23:17:17;;;;;;;1.75;0.40;;;;;;;9.55;100.00;100970.31;5071745;28;20039;-55
2021/06/12 23:20:20;;;;;;;0.65;0.65;;;;;;;9.54;100.00;100979.88;5071685;28;20043;-55
2021/06/12 23:23:23;;;;;;;0.47;0.40;;;;;;;9.54;100.00;100979.88;5071555;28;20048;-53
2021/06/12 23:26:27;;;;;;;1.00;0.80;;;;;;;9.48;100.00;100987.19;5071587;28;20579;-55
2021/06/12 23:29:31;;;;;;;0.55;0.30;;;;;;;9.49;100.00;100989.53;5071693;28;20052;-55
2021/06/12 23:32:34;;;;;;;0.45;0.40;;;;;;;9.46;100.00;100984.88;5074890;28;20051;-55
2021/06/12 23:35:38;;;;;;;0.85;0.82;;;;;;;9.43;100.00;100984.94;5075253;28;20047;-55
2021/06/12 23:38:41;;;;;;;0.57;0.57;;;;;;;9.49;100.00;100988.75;5075195;28;20051;-55
2021/06/12 23:41:49;;;;;;;0.57;0.57;;;;;;;9.53;100.00;100990.19;5075355;28;20052;-55
2021/06/12 23:44:53;;;;;;;8.98;0.77;;;;;;;9.56;100.00;100994.88;5074943;28;20063;-55
2021/06/12 23:47:56;;;;;;;0.60;0.60;;;;;;;9.55;100.00;100996.09;5075134;28;20060;-55
2021/06/12 23:50:59;;;;;;;2.28;0.77;;;;;;;9.48;100.00;101009.44;5075129;28;20047;-55
2021/06/12 23:54:04;;;;;;;3.25;0.57;;;;;;;9.46;100.00;101006.31;5074863;28;20503;-55
2021/06/12 23:57:08;;;;;;;1.75;0.82;;;;;;;9.42;100.00;101005.63;5074918;28;20047;-55
